Terminal Aerodrome Forecast
Issued by NWS Jackson, KY

Home | Current Version | Previous Version | Text Only | Print | Product List | Glossary On
Versions: 1 2 3 4 5 6 7 8 9 10 11 12 13 14 15 16 17
000
FTUS43 KJKL 091100
TAFLOZ
TAF
KLOZ 091123Z 0912/1012 VRB03KT P6SM VCTS BKN013CB OVC020
     FM091300 26009KT P6SM SCT025
     FM100600 00000KT 2SM BR SCT001
     FM100800 00000KT 1/2SM FG VV001=

USA.gov is the U.S. government's official web portal to all federal, state and local government web resources and services.